sensor_id;sensor_type;location;lat;lon;timestamp;pressure;altitude;pressure_sealevel;temperature;humidity
3844;BME280;1937;51.444;6.484;2023-10-08T00:01:46;68663.75;;;18.65;74.07
3844;BME280;1937;51.444;6.484;2023-10-08T00:04:12;68656.84;;;18.68;73.97
3844;BME280;1937;51.444;6.484;2023-10-08T00:06:44;68679.88;;;18.76;73.61
3844;BME280;1937;51.444;6.484;2023-10-08T00:09:10;68624.47;;;18.56;74.31
3844;BME280;1937;51.444;6.484;2023-10-08T00:11:37;68670.81;;;18.71;74.11
3844;BME280;1937;51.444;6.484;2023-10-08T00:14:05;68664.25;;;18.76;73.82
3844;BME280;1937;51.444;6.484;2023-10-08T00:16:35;68721.63;;;18.76;72.99
3844;BME280;1937;51.444;6.484;2023-10-08T00:19:06;68649.53;;;18.64;74.04
3844;BME280;1937;51.444;6.484;2023-10-08T00:21:40;68652.72;;;18.49;75.37
3844;BME280;1937;51.444;6.484;2023-10-08T00:24:09;68635.38;;;18.52;74.93
3844;BME280;1937;51.444;6.484;2023-10-08T00:26:37;68648.78;;;18.54;74.88
3844;BME280;1937;51.444;6.484;2023-10-08T00:29:07;68650.88;;;18.58;74.62
3844;BME280;1937;51.444;6.484;2023-10-08T00:31:41;68636.41;;;18.59;74.83
3844;BME280;1937;51.444;6.484;2023-10-08T00:34:11;68582.09;;;18.35;75.09
3844;BME280;1937;51.444;6.484;2023-10-08T00:36:40;68634.31;;;18.55;74.51
3844;BME280;1937;51.444;6.484;2023-10-08T00:39:08;68614.03;;;18.40;75.01
3844;BME280;1937;51.444;6.484;2023-10-08T00:41:40;68633.63;;;18.50;74.94
3844;BME280;1937;51.444;6.484;2023-10-08T00:44:08;68605.13;;;18.44;74.79
3844;BME280;1937;51.444;6.484;2023-10-08T00:46:38;68671.56;;;18.65;73.97
3844;BME280;1937;51.444;6.484;2023-10-08T00:49:08;68559.81;;;18.36;74.41
3844;BME280;1937;51.444;6.484;2023-10-08T00:51:51;68626.66;;;18.49;74.08
3844;BME280;1937;51.444;6.484;2023-10-08T00:54:29;68589.41;;;18.39;74.64
3844;BME280;1937;51.444;6.484;2023-10-08T00:57:00;68572.78;;;18.31;74.61
3844;BME280;1937;51.444;6.484;2023-10-08T00:59:31;68625.31;;;18.38;74.88
3844;BME280;1937;51.444;6.484;2023-10-08T01:02:07;68599.41;;;18.32;75.11
3844;BME280;1937;51.444;6.484;2023-10-08T01:04:40;68604.31;;;18.29;75.13
3844;BME280;1937;51.444;6.484;2023-10-08T01:07:12;68621.13;;;18.30;75.13
3844;BME280;1937;51.444;6.484;2023-10-08T01:09:41;68560.88;;;18.12;75.77
3844;BME280;1937;51.444;6.484;2023-10-08T01:12:10;68616.78;;;18.13;74.99
3844;BME280;1937;51.444;6.484;2023-10-08T01:14:41;68569.94;;;18.18;75.54
3844;BME280;1937;51.444;6.484;2023-10-08T01:17:09;68591.03;;;18.16;75.70
3844;BME280;1937;51.444;6.484;2023-10-08T01:19:38;68613.06;;;18.17;75.40
3844;BME280;1937;51.444;6.484;2023-10-08T01:22:07;68553.47;;;18.19;75.07
3844;BME280;1937;51.444;6.484;2023-10-08T01:24:33;68559.78;;;18.00;76.01
3844;BME280;1937;51.444;6.484;2023-10-08T01:27:01;68540.78;;;18.06;76.12
3844;BME280;1937;51.444;6.484;2023-10-08T01:29:30;68528.81;;;17.82;76.60
3844;BME280;1937;51.444;6.484;2023-10-08T01:31:57;68517.78;;;17.82;76.56
3844;BME280;1937;51.444;6.484;2023-10-08T01:34:24;68524.03;;;17.74;76.81
3844;BME280;1937;51.444;6.484;2023-10-08T01:36:56;68497.38;;;17.89;76.09
3844;BME280;1937;51.444;6.484;2023-10-08T01:39:28;68542.31;;;17.94;75.92
3844;BME280;1937;51.444;6.484;2023-10-08T01:41:57;68490.84;;;17.79;76.38
3844;BME280;1937;51.444;6.484;2023-10-08T01:44:24;68537.44;;;17.96;75.60
3844;BME280;1937;51.444;6.484;2023-10-08T01:46:50;68478.84;;;17.71;76.13
3844;BME280;1937;51.444;6.484;2023-10-08T01:49:18;68468.75;;;17.73;76.38
3844;BME280;1937;51.444;6.484;2023-10-08T01:51:48;68502.59;;;17.89;75.55
3844;BME280;1937;51.444;6.484;2023-10-08T01:54:16;68488.00;;;17.65;76.52
3844;BME280;1937;51.444;6.484;2023-10-08T01:56:47;68485.47;;;17.70;76.64
3844;BME280;1937;51.444;6.484;2023-10-08T01:59:15;68486.81;;;17.64;76.51
3844;BME280;1937;51.444;6.484;2023-10-08T02:01:42;68459.88;;;17.61;76.65
3844;BME280;1937;51.444;6.484;2023-10-08T02:04:10;68471.94;;;17.74;76.31
3844;BME280;1937;51.444;6.484;2023-10-08T02:06:38;68456.16;;;17.65;77.03
3844;BME280;1937;51.444;6.484;2023-10-08T02:09:05;68449.22;;;17.47;77.32
3844;BME280;1937;51.444;6.484;2023-10-08T02:11:41;68477.66;;;17.70;76.32
3844;BME280;1937;51.444;6.484;2023-10-08T02:14:10;68496.66;;;17.64;76.59
3844;BME280;1937;51.444;6.484;2023-10-08T02:16:36;68472.63;;;17.63;76.89
3844;BME280;1937;51.444;6.484;2023-10-08T02:19:03;68473.44;;;17.77;76.11
3844;BME280;1937;51.444;6.484;2023-10-08T02:21:32;68466.59;;;17.65;75.98
3844;BME280;1937;51.444;6.484;2023-10-08T02:24:02;68482.22;;;17.65;76.14
3844;BME280;1937;51.444;6.484;2023-10-08T02:26:29;68454.16;;;17.49;76.69
3844;BME280;1937;51.444;6.484;2023-10-08T02:28:56;68443.22;;;17.53;76.57
3844;BME280;1937;51.444;6.484;2023-10-08T02:31:26;68427.19;;;17.46;77.28
3844;BME280;1937;51.444;6.484;2023-10-08T02:33:56;68433.34;;;17.49;77.17
3844;BME280;1937;51.444;6.484;2023-10-08T02:36:24;68401.94;;;17.40;76.55
3844;BME280;1937;51.444;6.484;2023-10-08T02:38:53;68408.56;;;17.39;76.36
3844;BME280;1937;51.444;6.484;2023-10-08T02:41:20;68418.50;;;17.43;76.43
3844;BME280;1937;51.444;6.484;2023-10-08T02:43:49;68423.09;;;17.43;76.49
3844;BME280;1937;51.444;6.484;2023-10-08T02:46:16;68443.00;;;17.40;76.79
3844;BME280;1937;51.444;6.484;2023-10-08T02:48:45;68420.94;;;17.34;77.13
3844;BME280;1937;51.444;6.484;2023-10-08T02:51:12;68460.13;;;17.43;76.22
3844;BME280;1937;51.444;6.484;2023-10-08T02:53:40;68359.47;;;17.26;76.11
3844;BME280;1937;51.444;6.484;2023-10-08T02:56:09;68388.88;;;17.20;76.65
3844;BME280;1937;51.444;6.484;2023-10-08T02:58:39;68376.44;;;17.20;77.08
3844;BME280;1937;51.444;6.484;2023-10-08T03:01:07;68421.19;;;17.32;77.03
3844;BME280;1937;51.444;6.484;2023-10-08T03:03:39;68460.81;;;17.33;76.83
3844;BME280;1937;51.444;6.484;2023-10-08T03:06:11;68417.41;;;17.31;76.40
3844;BME280;1937;51.444;6.484;2023-10-08T03:08:40;68377.75;;;17.10;76.61
3844;BME280;1937;51.444;6.484;2023-10-08T03:11:09;68351.13;;;17.10;77.28
3844;BME280;1937;51.444;6.484;2023-10-08T03:13:43;68381.09;;;17.04;77.11
3844;BME280;1937;51.444;6.484;2023-10-08T03:16:12;68353.84;;;16.99;77.01
3844;BME280;1937;51.444;6.484;2023-10-08T03:18:39;68367.34;;;17.10;76.54
3844;BME280;1937;51.444;6.484;2023-10-08T03:21:10;68312.34;;;16.88;77.58
3844;BME280;1937;51.444;6.484;2023-10-08T03:23:46;68390.44;;;17.08;77.22
3844;BME280;1937;51.444;6.484;2023-10-08T03:26:14;68384.53;;;17.18;76.60
3844;BME280;1937;51.444;6.484;2023-10-08T03:28:59;68378.00;;;17.08;76.93
3844;BME280;1937;51.444;6.484;2023-10-08T03:31:33;68381.03;;;17.00;76.77
3844;BME280;1937;51.444;6.484;2023-10-08T03:34:16;68306.41;;;16.78;77.76
3844;BME280;1937;51.444;6.484;2023-10-08T03:36:47;68326.78;;;16.87;77.21
3844;BME280;1937;51.444;6.484;2023-10-08T03:39:17;68375.38;;;17.08;76.05
3844;BME280;1937;51.444;6.484;2023-10-08T03:41:44;68342.13;;;16.89;76.64
3844;BME280;1937;51.444;6.484;2023-10-08T03:44:24;68356.94;;;17.10;75.89
3844;BME280;1937;51.444;6.484;2023-10-08T03:46:55;68417.78;;;17.18;75.76
3844;BME280;1937;51.444;6.484;2023-10-08T03:49:22;68346.00;;;17.14;75.04
3844;BME280;1937;51.444;6.484;2023-10-08T03:51:53;68326.53;;;16.89;76.48
3844;BME280;1937;51.444;6.484;2023-10-08T03:54:23;68342.53;;;16.96;76.25
3844;BME280;1937;51.444;6.484;2023-10-08T03:56:59;68334.63;;;16.91;76.65
3844;BME280;1937;51.444;6.484;2023-10-08T03:59:26;68331.19;;;16.93;76.64
3844;BME280;1937;51.444;6.484;2023-10-08T04:02:03;68340.53;;;16.96;76.95
3844;BME280;1937;51.444;6.484;2023-10-08T04:04:39;68309.59;;;16.78;76.95
3844;BME280;1937;51.444;6.484;2023-10-08T04:07:20;68368.28;;;16.98;76.77
3844;BME280;1937;51.444;6.484;2023-10-08T04:10:05;68310.84;;;16.84;76.98
3844;BME280;1937;51.444;6.484;2023-10-08T04:13:00;68300.28;;;16.75;76.76
3844;BME280;1937;51.444;6.484;2023-10-08T04:15:26;68306.06;;;16.75;76.74
3844;BME280;1937;51.444;6.484;2023-10-08T04:17:53;68315.53;;;16.88;76.42
3844;BME280;1937;51.444;6.484;2023-10-08T04:20:19;68289.78;;;16.86;76.53
3844;BME280;1937;51.444;6.484;2023-10-08T04:23:06;68318.66;;;16.68;76.98
3844;BME280;1937;51.444;6.484;2023-10-08T04:25:39;68246.63;;;16.62;77.16
3844;BME280;1937;51.444;6.484;2023-10-08T04:28:07;68293.59;;;16.71;77.25
3844;BME280;1937;51.444;6.484;2023-10-08T04:30:39;68293.91;;;16.74;77.33
3844;BME280;1937;51.444;6.484;2023-10-08T04:33:07;68279.41;;;16.70;77.22
3844;BME280;1937;51.444;6.484;2023-10-08T04:35:38;68278.91;;;16.74;76.65
3844;BME280;1937;51.444;6.484;2023-10-08T04:38:22;68301.41;;;16.71;76.74
3844;BME280;1937;51.444;6.484;2023-10-08T04:40:49;68311.53;;;16.73;76.37
3844;BME280;1937;51.444;6.484;2023-10-08T04:43:18;68283.19;;;16.71;76.56
3844;BME280;1937;51.444;6.484;2023-10-08T04:45:50;68304.00;;;16.71;76.45
3844;BME280;1937;51.444;6.484;2023-10-08T04:48:16;68271.56;;;16.66;76.83
3844;BME280;1937;51.444;6.484;2023-10-08T04:50:46;68266.25;;;16.61;77.10
3844;BME280;1937;51.444;6.484;2023-10-08T04:53:25;68248.16;;;16.50;78.28
3844;BME280;1937;51.444;6.484;2023-10-08T04:55:58;68266.94;;;16.51;78.75
3844;BME280;1937;51.444;6.484;2023-10-08T04:58:28;68304.72;;;16.81;77.34
3844;BME280;1937;51.444;6.484;2023-10-08T05:00:59;68318.31;;;16.82;77.33
3844;BME280;1937;51.444;6.484;2023-10-08T05:03:43;68303.81;;;16.78;77.35
3844;BME280;1937;51.444;6.484;2023-10-08T05:06:21;68302.06;;;16.76;77.09
3844;BME280;1937;51.444;6.484;2023-10-08T05:09:07;68310.44;;;16.77;76.79
3844;BME280;1937;51.444;6.484;2023-10-08T05:11:37;68250.28;;;16.74;77.52
3844;BME280;1937;51.444;6.484;2023-10-08T05:14:11;68304.41;;;16.63;77.06
3844;BME280;1937;51.444;6.484;2023-10-08T05:16:54;68331.72;;;16.73;77.01
3844;BME280;1937;51.444;6.484;2023-10-08T05:19:26;68278.56;;;16.56;77.79
3844;BME280;1937;51.444;6.484;2023-10-08T05:22:14;68275.91;;;16.52;77.57
3844;BME280;1937;51.444;6.484;2023-10-08T05:24:45;68318.16;;;16.57;78.07
3844;BME280;1937;51.444;6.484;2023-10-08T05:27:33;68247.09;;;16.38;78.27
3844;BME280;1937;51.444;6.484;2023-10-08T05:30:21;68246.41;;;16.49;78.56
3844;BME280;1937;51.444;6.484;2023-10-08T05:32:54;68237.94;;;16.59;78.47
3844;BME280;1937;51.444;6.484;2023-10-08T05:35:38;68286.63;;;16.70;77.29
3844;BME280;1937;51.444;6.484;2023-10-08T05:38:21;68283.03;;;16.62;77.88
3844;BME280;1937;51.444;6.484;2023-10-08T05:40:51;68281.03;;;16.63;77.63
3844;BME280;1937;51.444;6.484;2023-10-08T05:43:31;68254.78;;;16.49;77.55
3844;BME280;1937;51.444;6.484;2023-10-08T05:46:15;68234.38;;;16.36;78.57
3844;BME280;1937;51.444;6.484;2023-10-08T05:48:59;68227.41;;;16.34;78.38
3844;BME280;1937;51.444;6.484;2023-10-08T05:51:29;68277.25;;;16.46;78.36
3844;BME280;1937;51.444;6.484;2023-10-08T05:54:11;68237.56;;;16.36;78.46
3844;BME280;1937;51.444;6.484;2023-10-08T05:56:52;68221.00;;;16.13;79.87
3844;BME280;1937;51.444;6.484;2023-10-08T05:59:32;68242.41;;;16.34;79.42
3844;BME280;1937;51.444;6.484;2023-10-08T06:02:04;68262.09;;;16.37;79.32
3844;BME280;1937;51.444;6.484;2023-10-08T06:04:51;68251.94;;;16.51;78.55
3844;BME280;1937;51.444;6.484;2023-10-08T06:07:35;68289.09;;;16.45;78.71
3844;BME280;1937;51.444;6.484;2023-10-08T06:10:15;68303.59;;;16.64;77.99
3844;BME280;1937;51.444;6.484;2023-10-08T06:13:10;68266.69;;;16.53;78.59
3844;BME280;1937;51.444;6.484;2023-10-08T06:15:40;68286.22;;;16.47;78.94
3844;BME280;1937;51.444;6.484;2023-10-08T06:18:14;68296.13;;;16.51;78.69
3844;BME280;1937;51.444;6.484;2023-10-08T06:20:40;68300.91;;;16.44;79.93
3844;BME280;1937;51.444;6.484;2023-10-08T06:23:11;68298.13;;;16.51;79.07
3844;BME280;1937;51.444;6.484;2023-10-08T06:25:39;68262.09;;;16.37;79.70
3844;BME280;1937;51.444;6.484;2023-10-08T06:28:16;68320.94;;;16.50;79.14
3844;BME280;1937;51.444;6.484;2023-10-08T06:30:44;68323.72;;;16.59;78.21
3844;BME280;1937;51.444;6.484;2023-10-08T06:33:13;68307.50;;;16.59;78.39
3844;BME280;1937;51.444;6.484;2023-10-08T06:35:40;68286.56;;;16.65;78.14
3844;BME280;1937;51.444;6.484;2023-10-08T06:38:10;68294.34;;;16.65;78.68
3844;BME280;1937;51.444;6.484;2023-10-08T06:40:37;68285.63;;;16.62;78.35
3844;BME280;1937;51.444;6.484;2023-10-08T06:43:10;68290.34;;;16.66;78.55
3844;BME280;1937;51.444;6.484;2023-10-08T06:45:48;68266.34;;;16.50;80.22
3844;BME280;1937;51.444;6.484;2023-10-08T06:48:21;68344.75;;;16.57;79.64
3844;BME280;1937;51.444;6.484;2023-10-08T06:50:49;68253.94;;;16.66;78.67
3844;BME280;1937;51.444;6.484;2023-10-08T06:53:17;68322.13;;;16.67;78.45
3844;BME280;1937;51.444;6.484;2023-10-08T06:55:44;68268.94;;;16.66;78.74
3844;BME280;1937;51.444;6.484;2023-10-08T06:58:13;68338.72;;;16.59;79.40
3844;BME280;1937;51.444;6.484;2023-10-08T07:00:40;68327.41;;;16.71;79.37
3844;BME280;1937;51.444;6.484;2023-10-08T07:03:13;68329.22;;;16.77;79.30
3844;BME280;1937;51.444;6.484;2023-10-08T07:05:43;68385.06;;;16.99;79.02
3844;BME280;1937;51.444;6.484;2023-10-08T07:08:20;68455.88;;;17.15;78.27
3844;BME280;1937;51.444;6.484;2023-10-08T07:10:51;68422.78;;;17.25;77.83
3844;BME280;1937;51.444;6.484;2023-10-08T07:13:18;68461.75;;;17.36;77.57
3844;BME280;1937;51.444;6.484;2023-10-08T07:15:50;68451.50;;;17.29;77.63
3844;BME280;1937;51.444;6.484;2023-10-08T07:18:18;68413.16;;;17.18;78.17
3844;BME280;1937;51.444;6.484;2023-10-08T07:20:51;68438.00;;;17.17;78.17
3844;BME280;1937;51.444;6.484;2023-10-08T07:23:19;68406.69;;;17.13;78.67
3844;BME280;1937;51.444;6.484;2023-10-08T07:25:53;68432.34;;;17.26;78.42
3844;BME280;1937;51.444;6.484;2023-10-08T07:28:25;68391.44;;;17.00;78.82
3844;BME280;1937;51.444;6.484;2023-10-08T07:30:52;68430.78;;;17.02;79.04
3844;BME280;1937;51.444;6.484;2023-10-08T07:33:20;68422.91;;;17.13;79.04
3844;BME280;1937;51.444;6.484;2023-10-08T07:35:50;68401.09;;;17.06;79.45
3844;BME280;1937;51.444;6.484;2023-10-08T07:38:28;68439.06;;;17.30;78.64
3844;BME280;1937;51.444;6.484;2023-10-08T07:40:56;68455.44;;;17.39;78.95
3844;BME280;1937;51.444;6.484;2023-10-08T07:43:22;68449.97;;;17.41;77.62
3844;BME280;1937;51.444;6.484;2023-10-08T07:45:49;68500.59;;;17.58;77.46
3844;BME280;1937;51.444;6.484;2023-10-08T07:48:20;68536.72;;;17.71;76.80
3844;BME280;1937;51.444;6.484;2023-10-08T07:50:55;68489.31;;;17.75;77.26
3844;BME280;1937;51.444;6.484;2023-10-08T07:53:22;68562.09;;;17.82;76.51
3844;BME280;1937;51.444;6.484;2023-10-08T07:55:50;68561.16;;;17.79;76.68
3844;BME280;1937;51.444;6.484;2023-10-08T07:58:17;68561.56;;;17.86;76.68
3844;BME280;1937;51.444;6.484;2023-10-08T08:00:45;68562.56;;;17.93;76.06
3844;BME280;1937;51.444;6.484;2023-10-08T08:03:21;68600.53;;;17.97;76.74
3844;BME280;1937;51.444;6.484;2023-10-08T08:05:49;68608.03;;;18.10;76.48
3844;BME280;1937;51.444;6.484;2023-10-08T08:08:20;68555.94;;;17.94;76.11
3844;BME280;1937;51.444;6.484;2023-10-08T08:10:48;68569.44;;;18.06;75.17
3844;BME280;1937;51.444;6.484;2023-10-08T08:13:15;68568.44;;;17.98;76.18
3844;BME280;1937;51.444;6.484;2023-10-08T08:15:48;68562.81;;;17.91;76.75
3844;BME280;1937;51.444;6.484;2023-10-08T08:18:16;68575.19;;;18.02;76.72
3844;BME280;1937;51.444;6.484;2023-10-08T08:20:49;68580.88;;;17.98;77.30
3844;BME280;1937;51.444;6.484;2023-10-08T08:23:16;68648.78;;;18.23;76.38
3844;BME280;1937;51.444;6.484;2023-10-08T08:25:43;68684.28;;;18.47;75.79
3844;BME280;1937;51.444;6.484;2023-10-08T08:28:21;68628.09;;;18.32;76.56
3844;BME280;1937;51.444;6.484;2023-10-08T08:30:50;68604.00;;;18.11;77.62
3844;BME280;1937;51.444;6.484;2023-10-08T08:33:17;68686.03;;;18.32;78.01
3844;BME280;1937;51.444;6.484;2023-10-08T08:35:57;68719.44;;;18.52;77.90
3844;BME280;1937;51.444;6.484;2023-10-08T08:38:23;68746.72;;;18.69;77.45
3844;BME280;1937;51.444;6.484;2023-10-08T08:40:50;68733.06;;;18.68;76.60
3844;BME280;1937;51.444;6.484;2023-10-08T08:43:19;68725.31;;;18.41;77.78
3844;BME280;1937;51.444;6.484;2023-10-08T08:45:45;68724.34;;;18.65;77.92
3844;BME280;1937;51.444;6.484;2023-10-08T08:48:16;68831.47;;;18.90;76.99
3844;BME280;1937;51.444;6.484;2023-10-08T08:50:44;68834.50;;;18.97;76.18
3844;BME280;1937;51.444;6.484;2023-10-08T08:53:14;68777.00;;;18.93;75.78
3844;BME280;1937;51.444;6.484;2023-10-08T08:55:41;68703.47;;;18.65;76.43
3844;BME280;1937;51.444;6.484;2023-10-08T08:58:09;68783.66;;;18.92;76.51
3844;BME280;1937;51.444;6.484;2023-10-08T09:00:37;68812.44;;;18.96;76.36
3844;BME280;1937;51.444;6.484;2023-10-08T09:03:06;68788.13;;;18.82;76.76
3844;BME280;1937;51.444;6.484;2023-10-08T09:05:33;68759.81;;;18.73;76.65
3844;BME280;1937;51.444;6.484;2023-10-08T09:08:02;68754.28;;;18.55;77.50
3844;BME280;1937;51.444;6.484;2023-10-08T09:10:32;68716.69;;;18.59;77.98
3844;BME280;1937;51.444;6.484;2023-10-08T09:13:03;68817.50;;;18.87;77.21
3844;BME280;1937;51.444;6.484;2023-10-08T09:15:30;68703.28;;;18.56;79.05
3844;BME280;1937;51.444;6.484;2023-10-08T09:17:58;68717.66;;;18.51;79.75
3844;BME280;1937;51.444;6.484;2023-10-08T09:20:26;68708.25;;;18.42;79.77
3844;BME280;1937;51.444;6.484;2023-10-08T09:23:05;68685.03;;;18.25;81.37
3844;BME280;1937;51.444;6.484;2023-10-08T09:25:35;68720.78;;;18.31;82.31
3844;BME280;1937;51.444;6.484;2023-10-08T09:28:02;68718.25;;;18.35;81.95
3844;BME280;1937;51.444;6.484;2023-10-08T09:30:33;68660.91;;;18.04;83.35
3844;BME280;1937;51.444;6.484;2023-10-08T09:33:04;68712.94;;;18.15;82.90
3844;BME280;1937;51.444;6.484;2023-10-08T09:35:31;68724.53;;;18.16;82.98
3844;BME280;1937;51.444;6.484;2023-10-08T09:37:58;68638.44;;;17.80;84.37
3844;BME280;1937;51.444;6.484;2023-10-08T09:40:30;68687.22;;;18.02;84.41
3844;BME280;1937;51.444;6.484;2023-10-08T09:42:58;68658.88;;;17.89;84.57
3844;BME280;1937;51.444;6.484;2023-10-08T09:45:25;68624.44;;;17.73;85.09
3844;BME280;1937;51.444;6.484;2023-10-08T09:47:55;68615.53;;;17.76;84.79
3844;BME280;1937;51.444;6.484;2023-10-08T09:50:27;68662.16;;;17.78;85.31
3844;BME280;1937;51.444;6.484;2023-10-08T09:53:00;68605.84;;;17.54;85.22
3844;BME280;1937;51.444;6.484;2023-10-08T09:55:29;68619.22;;;17.73;85.08
3844;BME280;1937;51.444;6.484;2023-10-08T09:58:01;68703.25;;;17.93;85.20
3844;BME280;1937;51.444;6.484;2023-10-08T10:00:30;68747.84;;;18.23;83.46
3844;BME280;1937;51.444;6.484;2023-10-08T10:02:58;68722.22;;;18.14;82.89
3844;BME280;1937;51.444;6.484;2023-10-08T10:05:29;68770.44;;;18.09;83.83
3844;BME280;1937;51.444;6.484;2023-10-08T10:07:56;68743.97;;;18.17;83.91
3844;BME280;1937;51.444;6.484;2023-10-08T10:10:27;68752.16;;;18.20;81.48
3844;BME280;1937;51.444;6.484;2023-10-08T10:12:57;68773.50;;;18.31;81.65
3844;BME280;1937;51.444;6.484;2023-10-08T10:15:27;68764.94;;;18.37;81.21
3844;BME280;1937;51.444;6.484;2023-10-08T10:17:58;68792.22;;;18.54;81.38
3844;BME280;1937;51.444;6.484;2023-10-08T10:20:25;68833.63;;;18.67;80.18
3844;BME280;1937;51.444;6.484;2023-10-08T10:22:52;68815.91;;;18.79;80.60
3844;BME280;1937;51.444;6.484;2023-10-08T10:25:34;68852.16;;;18.81;78.82
3844;BME280;1937;51.444;6.484;2023-10-08T10:28:23;68823.81;;;18.84;79.64
3844;BME280;1937;51.444;6.484;2023-10-08T10:30:51;68833.47;;;18.74;79.38
3844;BME280;1937;51.444;6.484;2023-10-08T10:33:18;68821.28;;;18.72;79.18
3844;BME280;1937;51.444;6.484;2023-10-08T10:35:50;68778.00;;;18.69;79.50
3844;BME280;1937;51.444;6.484;2023-10-08T10:38:18;68793.00;;;18.64;80.21
3844;BME280;1937;51.444;6.484;2023-10-08T10:40:48;68790.31;;;18.59;80.62
3844;BME280;1937;51.444;6.484;2023-10-08T10:43:23;68763.75;;;18.52;80.47
3844;BME280;1937;51.444;6.484;2023-10-08T10:45:59;68734.56;;;18.25;80.60
3844;BME280;1937;51.444;6.484;2023-10-08T10:48:37;68704.38;;;18.06;81.31
3844;BME280;1937;51.444;6.484;2023-10-08T10:51:05;68709.41;;;18.12;81.94
3844;BME280;1937;51.444;6.484;2023-10-08T10:53:34;68686.22;;;18.10;81.75
3844;BME280;1937;51.444;6.484;2023-10-08T10:56:11;68702.44;;;18.11;82.63
3844;BME280;1937;51.444;6.484;2023-10-08T10:58:45;68700.06;;;17.93;82.63
3844;BME280;1937;51.444;6.484;2023-10-08T11:01:13;68718.22;;;18.04;81.59
3844;BME280;1937;51.444;6.484;2023-10-08T11:03:50;68704.28;;;18.17;81.37
3844;BME280;1937;51.444;6.484;2023-10-08T11:06:18;68739.88;;;18.29;80.88
3844;BME280;1937;51.444;6.484;2023-10-08T11:08:49;68742.03;;;18.22;80.34
3844;BME280;1937;51.444;6.484;2023-10-08T11:11:17;68723.97;;;18.16;80.88
3844;BME280;1937;51.444;6.484;2023-10-08T11:13:44;68706.81;;;18.12;81.44
3844;BME280;1937;51.444;6.484;2023-10-08T11:16:18;68704.38;;;18.21;80.91
3844;BME280;1937;51.444;6.484;2023-10-08T11:18:50;68703.19;;;18.20;80.72
3844;BME280;1937;51.444;6.484;2023-10-08T11:21:23;68728.00;;;18.15;80.57
3844;BME280;1937;51.444;6.484;2023-10-08T11:23:51;68700.06;;;18.09;81.68
3844;BME280;1937;51.444;6.484;2023-10-08T11:26:25;68765.44;;;18.33;81.83
3844;BME280;1937;51.444;6.484;2023-10-08T11:29:05;68770.50;;;18.56;79.00
3844;BME280;1937;51.444;6.484;2023-10-08T11:31:41;68774.13;;;18.48;79.23
3844;BME280;1937;51.444;6.484;2023-10-08T11:34:11;68750.66;;;18.48;79.75
3844;BME280;1937;51.444;6.484;2023-10-08T11:36:38;68751.66;;;18.39;79.39
3844;BME280;1937;51.444;6.484;2023-10-08T11:39:18;68715.13;;;18.39;78.67
3844;BME280;1937;51.444;6.484;2023-10-08T11:41:55;68741.41;;;18.49;79.51
3844;BME280;1937;51.444;6.484;2023-10-08T11:44:22;68705.13;;;18.31;79.34
3844;BME280;1937;51.444;6.484;2023-10-08T11:46:50;68762.59;;;18.35;80.13
3844;BME280;1937;51.444;6.484;2023-10-08T11:49:21;68767.56;;;18.53;78.38
3844;BME280;1937;51.444;6.484;2023-10-08T11:51:51;68766.75;;;18.55;77.71
3844;BME280;1937;51.444;6.484;2023-10-08T11:54:21;68746.34;;;18.35;77.93
3844;BME280;1937;51.444;6.484;2023-10-08T11:56:48;68730.28;;;18.44;78.71
3844;BME280;1937;51.444;6.484;2023-10-08T11:59:15;68794.69;;;18.61;77.58
3844;BME280;1937;51.444;6.484;2023-10-08T12:01:43;68716.06;;;18.42;77.49
3844;BME280;1937;51.444;6.484;2023-10-08T12:04:12;68712.22;;;18.37;78.44
3844;BME280;1937;51.444;6.484;2023-10-08T12:06:41;68745.50;;;18.52;77.88
3844;BME280;1937;51.444;6.484;2023-10-08T12:09:12;68755.44;;;18.40;78.31
3844;BME280;1937;51.444;6.484;2023-10-08T12:11:42;68633.25;;;18.12;79.08
3844;BME280;1937;51.444;6.484;2023-10-08T12:14:09;68710.19;;;18.22;79.35
3844;BME280;1937;51.444;6.484;2023-10-08T12:16:36;68716.81;;;18.21;79.11
3844;BME280;1937;51.444;6.484;2023-10-08T12:19:04;68660.16;;;18.10;80.26
3844;BME280;1937;51.444;6.484;2023-10-08T12:21:43;68709.41;;;18.28;79.75
3844;BME280;1937;51.444;6.484;2023-10-08T12:24:11;68655.50;;;18.26;79.01
3844;BME280;1937;51.444;6.484;2023-10-08T12:26:38;68684.88;;;18.16;79.72
3844;BME280;1937;51.444;6.484;2023-10-08T12:29:10;68792.09;;;18.50;79.30
3844;BME280;1937;51.444;6.484;2023-10-08T12:31:39;68773.38;;;18.69;78.52
3844;BME280;1937;51.444;6.484;2023-10-08T12:34:06;68789.88;;;18.68;79.10
3844;BME280;1937;51.444;6.484;2023-10-08T12:36:37;68801.09;;;18.77;77.33
3844;BME280;1937;51.444;6.484;2023-10-08T12:39:05;68761.59;;;18.59;77.75
3844;BME280;1937;51.444;6.484;2023-10-08T12:41:40;68747.19;;;18.49;78.17
3844;BME280;1937;51.444;6.484;2023-10-08T12:44:06;68741.81;;;18.40;79.42
3844;BME280;1937;51.444;6.484;2023-10-08T12:46:33;68716.91;;;18.25;80.08
3844;BME280;1937;51.444;6.484;2023-10-08T12:49:00;68713.72;;;18.40;79.10
3844;BME280;1937;51.444;6.484;2023-10-08T12:51:28;68716.72;;;18.32;78.87
3844;BME280;1937;51.444;6.484;2023-10-08T12:53:58;68710.50;;;18.09;81.15
3844;BME280;1937;51.444;6.484;2023-10-08T12:56:30;68705.13;;;17.99;82.42
3844;BME280;1937;51.444;6.484;2023-10-08T12:59:03;68658.22;;;17.84;82.94
3844;BME280;1937;51.444;6.484;2023-10-08T13:01:32;68685.03;;;17.93;82.53
3844;BME280;1937;51.444;6.484;2023-10-08T13:04:01;68699.81;;;17.95;82.13
3844;BME280;1937;51.444;6.484;2023-10-08T13:06:33;68702.94;;;18.07;82.38
3844;BME280;1937;51.444;6.484;2023-10-08T13:09:03;68724.47;;;18.27;79.73
3844;BME280;1937;51.444;6.484;2023-10-08T13:11:36;68750.31;;;18.45;79.48
3844;BME280;1937;51.444;6.484;2023-10-08T13:14:04;68757.63;;;18.49;79.62
3844;BME280;1937;51.444;6.484;2023-10-08T13:16:31;68823.81;;;18.84;78.69
3844;BME280;1937;51.444;6.484;2023-10-08T13:18:59;68768.84;;;18.59;77.98
3844;BME280;1937;51.444;6.484;2023-10-08T13:21:26;68752.50;;;18.54;78.58
3844;BME280;1937;51.444;6.484;2023-10-08T13:23:54;68780.13;;;18.73;77.69
3844;BME280;1937;51.444;6.484;2023-10-08T13:26:22;68831.88;;;18.66;77.09
3844;BME280;1937;51.444;6.484;2023-10-08T13:28:51;68763.28;;;18.56;78.43
3844;BME280;1937;51.444;6.484;2023-10-08T13:31:17;68771.34;;;18.54;79.08
3844;BME280;1937;51.444;6.484;2023-10-08T13:33:45;68856.38;;;18.89;78.52
3844;BME280;1937;51.444;6.484;2023-10-08T13:36:14;68895.22;;;19.18;75.91
3844;BME280;1937;51.444;6.484;2023-10-08T13:38:41;68837.38;;;18.95;75.83
3844;BME280;1937;51.444;6.484;2023-10-08T13:41:08;68800.84;;;18.95;75.89
3844;BME280;1937;51.444;6.484;2023-10-08T13:43:41;68788.13;;;18.82;76.37